sensor_id;sensor_type;location;lat;lon;timestamp;P1;durP1;ratioP1;P2;durP2;ratioP2
34988;SDS011;21192;40.182;44.516;2024-01-07T00:00:21;9.32;;;4.68;;
34988;SDS011;21192;40.182;44.516;2024-01-07T00:02:47;8.82;;;4.78;;
34988;SDS011;21192;40.182;44.516;2024-01-07T00:05:13;10.90;;;5.18;;
34988;SDS011;21192;40.182;44.516;2024-01-07T00:07:39;9.80;;;4.60;;
34988;SDS011;21192;40.182;44.516;2024-01-07T00:10:05;11.73;;;6.00;;
34988;SDS011;21192;40.182;44.516;2024-01-07T00:12:31;16.98;;;7.50;;
34988;SDS011;21192;40.182;44.516;2024-01-07T00:14:57;13.27;;;6.13;;
34988;SDS011;21192;40.182;44.516;2024-01-07T00:17:23;11.30;;;5.03;;
34988;SDS011;21192;40.182;44.516;2024-01-07T00:19:49;13.75;;;4.60;;
34988;SDS011;21192;40.182;44.516;2024-01-07T00:22:15;12.45;;;5.43;;
34988;SDS011;21192;40.182;44.516;2024-01-07T00:24:40;9.25;;;4.90;;
34988;SDS011;21192;40.182;44.516;2024-01-07T00:27:06;11.50;;;4.53;;
34988;SDS011;21192;40.182;44.516;2024-01-07T00:29:33;10.50;;;4.22;;
34988;SDS011;21192;40.182;44.516;2024-01-07T00:32:00;11.68;;;4.45;;
34988;SDS011;21192;40.182;44.516;2024-01-07T00:34:27;11.55;;;4.22;;
34988;SDS011;21192;40.182;44.516;2024-01-07T00:36:53;8.82;;;3.83;;
34988;SDS011;21192;40.182;44.516;2024-01-07T00:39:19;8.45;;;3.88;;
34988;SDS011;21192;40.182;44.516;2024-01-07T00:41:46;9.57;;;3.85;;
34988;SDS011;21192;40.182;44.516;2024-01-07T00:44:11;11.15;;;4.43;;
34988;SDS011;21192;40.182;44.516;2024-01-07T00:46:38;9.20;;;4.32;;
34988;SDS011;21192;40.182;44.516;2024-01-07T00:49:04;8.45;;;4.10;;
34988;SDS011;21192;40.182;44.516;2024-01-07T00:51:29;7.72;;;3.63;;
34988;SDS011;21192;40.182;44.516;2024-01-07T00:53:55;6.63;;;3.47;;
34988;SDS011;21192;40.182;44.516;2024-01-07T00:56:21;7.50;;;3.20;;
34988;SDS011;21192;40.182;44.516;2024-01-07T00:58:50;7.97;;;3.00;;
34988;SDS011;21192;40.182;44.516;2024-01-07T01:01:16;10.43;;;4.03;;
34988;SDS011;21192;40.182;44.516;2024-01-07T01:03:42;8.02;;;3.45;;
34988;SDS011;21192;40.182;44.516;2024-01-07T01:06:07;9.90;;;3.60;;
34988;SDS011;21192;40.182;44.516;2024-01-07T01:08:33;7.75;;;4.10;;
34988;SDS011;21192;40.182;44.516;2024-01-07T01:10:59;8.65;;;4.03;;
34988;SDS011;21192;40.182;44.516;2024-01-07T01:13:25;9.38;;;3.50;;
34988;SDS011;21192;40.182;44.516;2024-01-07T01:15:51;9.70;;;4.00;;
34988;SDS011;21192;40.182;44.516;2024-01-07T01:18:17;8.30;;;3.60;;
34988;SDS011;21192;40.182;44.516;2024-01-07T01:20:43;8.98;;;3.35;;
34988;SDS011;21192;40.182;44.516;2024-01-07T01:23:09;6.97;;;3.55;;
34988;SDS011;21192;40.182;44.516;2024-01-07T01:25:35;9.77;;;3.92;;
34988;SDS011;21192;40.182;44.516;2024-01-07T01:28:01;7.53;;;3.20;;
34988;SDS011;21192;40.182;44.516;2024-01-07T01:30:27;9.13;;;3.78;;
34988;SDS011;21192;40.182;44.516;2024-01-07T01:32:55;9.40;;;3.55;;
34988;SDS011;21192;40.182;44.516;2024-01-07T01:35:21;8.55;;;2.90;;
34988;SDS011;21192;40.182;44.516;2024-01-07T01:37:48;7.05;;;3.30;;
34988;SDS011;21192;40.182;44.516;2024-01-07T01:40:14;7.25;;;3.30;;
34988;SDS011;21192;40.182;44.516;2024-01-07T01:42:44;6.60;;;3.30;;
34988;SDS011;21192;40.182;44.516;2024-01-07T01:45:11;6.00;;;2.95;;
34988;SDS011;21192;40.182;44.516;2024-01-07T01:47:37;8.85;;;3.45;;
34988;SDS011;21192;40.182;44.516;2024-01-07T01:50:03;5.70;;;2.97;;
34988;SDS011;21192;40.182;44.516;2024-01-07T01:52:30;6.45;;;3.10;;
34988;SDS011;21192;40.182;44.516;2024-01-07T01:54:56;6.95;;;3.28;;
34988;SDS011;21192;40.182;44.516;2024-01-07T01:57:22;7.07;;;3.22;;
34988;SDS011;21192;40.182;44.516;2024-01-07T01:59:52;7.32;;;3.55;;
34988;SDS011;21192;40.182;44.516;2024-01-07T02:02:18;11.32;;;3.65;;
34988;SDS011;21192;40.182;44.516;2024-01-07T02:04:44;8.65;;;3.92;;
34988;SDS011;21192;40.182;44.516;2024-01-07T02:07:10;7.25;;;3.28;;
34988;SDS011;21192;40.182;44.516;2024-01-07T02:09:36;7.28;;;3.33;;
34988;SDS011;21192;40.182;44.516;2024-01-07T02:14:29;8.07;;;3.40;;
34988;SDS011;21192;40.182;44.516;2024-01-07T02:16:55;6.75;;;3.28;;
34988;SDS011;21192;40.182;44.516;2024-01-07T02:19:21;6.50;;;3.30;;
34988;SDS011;21192;40.182;44.516;2024-01-07T02:21:47;6.60;;;3.00;;
34988;SDS011;21192;40.182;44.516;2024-01-07T02:24:16;6.88;;;2.83;;
34988;SDS011;21192;40.182;44.516;2024-01-07T02:26:42;9.80;;;3.22;;
34988;SDS011;21192;40.182;44.516;2024-01-07T02:29:08;7.65;;;3.00;;
34988;SDS011;21192;40.182;44.516;2024-01-07T02:31:34;5.93;;;2.50;;
34988;SDS011;21192;40.182;44.516;2024-01-07T02:34:00;5.65;;;2.80;;
34988;SDS011;21192;40.182;44.516;2024-01-07T02:36:25;8.10;;;2.70;;
34988;SDS011;21192;40.182;44.516;2024-01-07T02:38:51;7.80;;;3.20;;
34988;SDS011;21192;40.182;44.516;2024-01-07T02:41:17;7.50;;;2.58;;
34988;SDS011;21192;40.182;44.516;2024-01-07T02:43:45;6.15;;;2.85;;
34988;SDS011;21192;40.182;44.516;2024-01-07T02:46:11;7.72;;;3.15;;
34988;SDS011;21192;40.182;44.516;2024-01-07T02:48:36;5.47;;;2.55;;
34988;SDS011;21192;40.182;44.516;2024-01-07T02:51:02;6.28;;;2.50;;
34988;SDS011;21192;40.182;44.516;2024-01-07T02:53:30;5.85;;;2.50;;
34988;SDS011;21192;40.182;44.516;2024-01-07T02:55:56;4.95;;;2.33;;
34988;SDS011;21192;40.182;44.516;2024-01-07T02:58:22;6.85;;;2.33;;
34988;SDS011;21192;40.182;44.516;2024-01-07T03:00:48;7.70;;;2.97;;
34988;SDS011;21192;40.182;44.516;2024-01-07T03:03:13;7.00;;;2.55;;
34988;SDS011;21192;40.182;44.516;2024-01-07T03:05:39;7.07;;;2.38;;
34988;SDS011;21192;40.182;44.516;2024-01-07T03:08:05;8.35;;;2.88;;
34988;SDS011;21192;40.182;44.516;2024-01-07T03:10:32;9.93;;;2.40;;
34988;SDS011;21192;40.182;44.516;2024-01-07T03:12:58;6.55;;;2.83;;
34988;SDS011;21192;40.182;44.516;2024-01-07T03:15:25;5.97;;;2.40;;
34988;SDS011;21192;40.182;44.516;2024-01-07T03:17:51;7.07;;;2.42;;
34988;SDS011;21192;40.182;44.516;2024-01-07T03:20:17;4.75;;;2.65;;
34988;SDS011;21192;40.182;44.516;2024-01-07T03:22:42;6.00;;;2.13;;
34988;SDS011;21192;40.182;44.516;2024-01-07T03:25:08;6.00;;;2.17;;
34988;SDS011;21192;40.182;44.516;2024-01-07T03:27:34;4.93;;;2.30;;
34988;SDS011;21192;40.182;44.516;2024-01-07T03:30:00;5.43;;;2.20;;
34988;SDS011;21192;40.182;44.516;2024-01-07T03:32:26;5.28;;;2.40;;
34988;SDS011;21192;40.182;44.516;2024-01-07T03:34:52;8.05;;;2.42;;
34988;SDS011;21192;40.182;44.516;2024-01-07T03:37:18;7.88;;;3.00;;
34988;SDS011;21192;40.182;44.516;2024-01-07T03:39:44;6.38;;;2.72;;
34988;SDS011;21192;40.182;44.516;2024-01-07T03:42:11;5.38;;;2.30;;
34988;SDS011;21192;40.182;44.516;2024-01-07T03:44:38;5.25;;;2.25;;
34988;SDS011;21192;40.182;44.516;2024-01-07T03:47:05;7.45;;;2.55;;
34988;SDS011;21192;40.182;44.516;2024-01-07T03:49:31;6.00;;;2.88;;
34988;SDS011;21192;40.182;44.516;2024-01-07T03:51:57;8.05;;;3.05;;
34988;SDS011;21192;40.182;44.516;2024-01-07T03:54:23;5.53;;;2.33;;
34988;SDS011;21192;40.182;44.516;2024-01-07T03:56:49;7.50;;;2.83;;
34988;SDS011;21192;40.182;44.516;2024-01-07T03:59:14;5.35;;;2.53;;
34988;SDS011;21192;40.182;44.516;2024-01-07T04:01:41;5.35;;;2.80;;
34988;SDS011;21192;40.182;44.516;2024-01-07T04:04:06;6.47;;;2.63;;
34988;SDS011;21192;40.182;44.516;2024-01-07T04:06:32;6.25;;;2.92;;
34988;SDS011;21192;40.182;44.516;2024-01-07T04:08:58;7.13;;;2.78;;
34988;SDS011;21192;40.182;44.516;2024-01-07T04:11:24;9.15;;;2.72;;
34988;SDS011;21192;40.182;44.516;2024-01-07T04:13:50;6.47;;;2.92;;
34988;SDS011;21192;40.182;44.516;2024-01-07T04:16:16;7.40;;;3.20;;
34988;SDS011;21192;40.182;44.516;2024-01-07T04:18:43;11.32;;;4.55;;
34988;SDS011;21192;40.182;44.516;2024-01-07T04:21:10;7.53;;;3.10;;
34988;SDS011;21192;40.182;44.516;2024-01-07T04:23:36;10.35;;;3.38;;
34988;SDS011;21192;40.182;44.516;2024-01-07T04:26:04;8.63;;;2.85;;
34988;SDS011;21192;40.182;44.516;2024-01-07T04:28:30;6.53;;;2.85;;
34988;SDS011;21192;40.182;44.516;2024-01-07T04:30:55;10.52;;;3.13;;
34988;SDS011;21192;40.182;44.516;2024-01-07T04:33:21;8.25;;;3.40;;
34988;SDS011;21192;40.182;44.516;2024-01-07T04:35:47;9.05;;;3.35;;
34988;SDS011;21192;40.182;44.516;2024-01-07T04:38:13;8.05;;;3.45;;
34988;SDS011;21192;40.182;44.516;2024-01-07T04:40:39;8.25;;;3.55;;
34988;SDS011;21192;40.182;44.516;2024-01-07T04:43:05;6.70;;;3.10;;
34988;SDS011;21192;40.182;44.516;2024-01-07T04:45:31;8.27;;;3.50;;
34988;SDS011;21192;40.182;44.516;2024-01-07T04:47:57;8.32;;;3.45;;
34988;SDS011;21192;40.182;44.516;2024-01-07T04:50:23;7.88;;;3.42;;
34988;SDS011;21192;40.182;44.516;2024-01-07T04:52:48;13.23;;;4.15;;
34988;SDS011;21192;40.182;44.516;2024-01-07T04:55:14;9.68;;;3.72;;
34988;SDS011;21192;40.182;44.516;2024-01-07T04:57:40;9.68;;;4.40;;
34988;SDS011;21192;40.182;44.516;2024-01-07T05:00:06;8.55;;;4.05;;
34988;SDS011;21192;40.182;44.516;2024-01-07T05:02:32;11.55;;;4.40;;
34988;SDS011;21192;40.182;44.516;2024-01-07T05:04:58;7.85;;;4.13;;
34988;SDS011;21192;40.182;44.516;2024-01-07T05:07:24;7.28;;;4.05;;
34988;SDS011;21192;40.182;44.516;2024-01-07T05:09:50;12.07;;;5.00;;
34988;SDS011;21192;40.182;44.516;2024-01-07T05:12:16;11.40;;;5.32;;
34988;SDS011;21192;40.182;44.516;2024-01-07T05:14:42;11.18;;;5.03;;
34988;SDS011;21192;40.182;44.516;2024-01-07T05:17:11;10.13;;;5.57;;
34988;SDS011;21192;40.182;44.516;2024-01-07T05:19:39;13.80;;;7.57;;
34988;SDS011;21192;40.182;44.516;2024-01-07T05:22:06;15.10;;;6.60;;
34988;SDS011;21192;40.182;44.516;2024-01-07T05:24:32;20.00;;;11.18;;
34988;SDS011;21192;40.182;44.516;2024-01-07T05:26:58;21.27;;;11.02;;
34988;SDS011;21192;40.182;44.516;2024-01-07T05:29:24;17.98;;;7.35;;
34988;SDS011;21192;40.182;44.516;2024-01-07T05:31:50;11.80;;;6.18;;
34988;SDS011;21192;40.182;44.516;2024-01-07T05:34:16;10.18;;;5.50;;
34988;SDS011;21192;40.182;44.516;2024-01-07T05:36:42;12.88;;;6.00;;
34988;SDS011;21192;40.182;44.516;2024-01-07T05:39:07;12.80;;;6.43;;
34988;SDS011;21192;40.182;44.516;2024-01-07T05:41:36;12.60;;;5.85;;
34988;SDS011;21192;40.182;44.516;2024-01-07T05:44:05;16.05;;;6.18;;
34988;SDS011;21192;40.182;44.516;2024-01-07T05:46:33;12.63;;;6.30;;
34988;SDS011;21192;40.182;44.516;2024-01-07T05:48:59;15.48;;;6.20;;
34988;SDS011;21192;40.182;44.516;2024-01-07T05:51:24;12.73;;;7.22;;
34988;SDS011;21192;40.182;44.516;2024-01-07T05:53:50;16.25;;;7.63;;
34988;SDS011;21192;40.182;44.516;2024-01-07T05:56:16;13.50;;;7.22;;
34988;SDS011;21192;40.182;44.516;2024-01-07T05:58:42;11.02;;;6.47;;
34988;SDS011;21192;40.182;44.516;2024-01-07T06:01:08;8.02;;;4.97;;
34988;SDS011;21192;40.182;44.516;2024-01-07T06:03:34;9.20;;;4.82;;
34988;SDS011;21192;40.182;44.516;2024-01-07T06:06:00;9.85;;;5.22;;
34988;SDS011;21192;40.182;44.516;2024-01-07T06:08:26;9.00;;;4.90;;
34988;SDS011;21192;40.182;44.516;2024-01-07T06:10:52;9.43;;;5.32;;
34988;SDS011;21192;40.182;44.516;2024-01-07T06:13:17;11.45;;;5.82;;
34988;SDS011;21192;40.182;44.516;2024-01-07T06:15:43;8.55;;;4.80;;
34988;SDS011;21192;40.182;44.516;2024-01-07T06:18:09;10.35;;;5.00;;
34988;SDS011;21192;40.182;44.516;2024-01-07T06:20:35;9.65;;;4.65;;
34988;SDS011;21192;40.182;44.516;2024-01-07T06:23:01;8.52;;;5.25;;
34988;SDS011;21192;40.182;44.516;2024-01-07T06:25:27;8.90;;;5.47;;
34988;SDS011;21192;40.182;44.516;2024-01-07T06:27:53;9.48;;;5.63;;
34988;SDS011;21192;40.182;44.516;2024-01-07T06:30:19;10.57;;;5.78;;
34988;SDS011;21192;40.182;44.516;2024-01-07T06:32:45;10.60;;;6.90;;
34988;SDS011;21192;40.182;44.516;2024-01-07T06:35:11;15.80;;;8.00;;
34988;SDS011;21192;40.182;44.516;2024-01-07T06:37:37;13.32;;;8.45;;
34988;SDS011;21192;40.182;44.516;2024-01-07T06:40:03;15.88;;;9.00;;
34988;SDS011;21192;40.182;44.516;2024-01-07T06:42:29;12.77;;;7.85;;
34988;SDS011;21192;40.182;44.516;2024-01-07T06:44:55;12.27;;;7.55;;
34988;SDS011;21192;40.182;44.516;2024-01-07T06:47:21;11.48;;;6.35;;
34988;SDS011;21192;40.182;44.516;2024-01-07T06:49:47;11.57;;;6.90;;
34988;SDS011;21192;40.182;44.516;2024-01-07T06:52:13;10.35;;;5.82;;
34988;SDS011;21192;40.182;44.516;2024-01-07T06:54:39;10.65;;;5.78;;
34988;SDS011;21192;40.182;44.516;2024-01-07T06:57:05;9.60;;;6.00;;
34988;SDS011;21192;40.182;44.516;2024-01-07T06:59:31;8.80;;;5.70;;
34988;SDS011;21192;40.182;44.516;2024-01-07T07:01:57;9.73;;;6.22;;
34988;SDS011;21192;40.182;44.516;2024-01-07T07:04:22;12.52;;;5.82;;
34988;SDS011;21192;40.182;44.516;2024-01-07T07:06:48;10.13;;;4.85;;
34988;SDS011;21192;40.182;44.516;2024-01-07T07:09:14;10.18;;;5.78;;
34988;SDS011;21192;40.182;44.516;2024-01-07T07:11:40;9.68;;;4.93;;
34988;SDS011;21192;40.182;44.516;2024-01-07T07:14:06;10.25;;;5.60;;
34988;SDS011;21192;40.182;44.516;2024-01-07T07:16:32;8.93;;;5.38;;
34988;SDS011;21192;40.182;44.516;2024-01-07T07:18:58;12.25;;;6.70;;
34988;SDS011;21192;40.182;44.516;2024-01-07T07:21:24;10.27;;;6.82;;
34988;SDS011;21192;40.182;44.516;2024-01-07T07:23:52;12.68;;;7.65;;
34988;SDS011;21192;40.182;44.516;2024-01-07T07:26:18;11.85;;;7.15;;
34988;SDS011;21192;40.182;44.516;2024-01-07T07:28:44;15.63;;;8.77;;
34988;SDS011;21192;40.182;44.516;2024-01-07T07:31:13;13.63;;;7.80;;
34988;SDS011;21192;40.182;44.516;2024-01-07T07:33:39;14.52;;;9.65;;
34988;SDS011;21192;40.182;44.516;2024-01-07T07:36:05;16.70;;;8.85;;
34988;SDS011;21192;40.182;44.516;2024-01-07T07:38:31;15.68;;;9.15;;
34988;SDS011;21192;40.182;44.516;2024-01-07T07:40:58;18.48;;;8.98;;
34988;SDS011;21192;40.182;44.516;2024-01-07T07:43:24;20.05;;;10.35;;
34988;SDS011;21192;40.182;44.516;2024-01-07T07:45:51;19.58;;;12.35;;
34988;SDS011;21192;40.182;44.516;2024-01-07T07:48:17;19.13;;;12.27;;
34988;SDS011;21192;40.182;44.516;2024-01-07T07:50:43;17.10;;;11.10;;
34988;SDS011;21192;40.182;44.516;2024-01-07T07:53:09;18.58;;;11.27;;
34988;SDS011;21192;40.182;44.516;2024-01-07T07:55:35;22.95;;;11.88;;
34988;SDS011;21192;40.182;44.516;2024-01-07T07:58:01;20.77;;;11.55;;
34988;SDS011;21192;40.182;44.516;2024-01-07T08:00:27;18.23;;;11.63;;
34988;SDS011;21192;40.182;44.516;2024-01-07T08:02:53;21.48;;;11.27;;
34988;SDS011;21192;40.182;44.516;2024-01-07T08:05:19;20.05;;;11.65;;
34988;SDS011;21192;40.182;44.516;2024-01-07T08:07:45;18.60;;;11.40;;
34988;SDS011;21192;40.182;44.516;2024-01-07T08:10:11;19.98;;;11.18;;
34988;SDS011;21192;40.182;44.516;2024-01-07T08:12:37;18.33;;;11.48;;
34988;SDS011;21192;40.182;44.516;2024-01-07T08:15:03;22.30;;;12.07;;
34988;SDS011;21192;40.182;44.516;2024-01-07T08:17:30;20.65;;;12.68;;
34988;SDS011;21192;40.182;44.516;2024-01-07T08:19:56;19.67;;;12.30;;
34988;SDS011;21192;40.182;44.516;2024-01-07T08:22:22;25.55;;;12.65;;
34988;SDS011;21192;40.182;44.516;2024-01-07T08:24:48;21.88;;;12.05;;
34988;SDS011;21192;40.182;44.516;2024-01-07T08:27:13;21.67;;;12.40;;
34988;SDS011;21192;40.182;44.516;2024-01-07T08:29:42;24.85;;;12.82;;
34988;SDS011;21192;40.182;44.516;2024-01-07T08:32:09;24.80;;;12.65;;
34988;SDS011;21192;40.182;44.516;2024-01-07T08:34:35;20.17;;;12.93;;
34988;SDS011;21192;40.182;44.516;2024-01-07T08:37:01;24.52;;;12.27;;
34988;SDS011;21192;40.182;44.516;2024-01-07T08:39:27;19.75;;;11.00;;
34988;SDS011;21192;40.182;44.516;2024-01-07T08:41:54;20.17;;;11.85;;
34988;SDS011;21192;40.182;44.516;2024-01-07T08:44:20;21.98;;;12.68;;
34988;SDS011;21192;40.182;44.516;2024-01-07T08:46:46;25.42;;;11.85;;
34988;SDS011;21192;40.182;44.516;2024-01-07T08:49:12;20.50;;;11.00;;
34988;SDS011;21192;40.182;44.516;2024-01-07T08:51:39;20.40;;;10.90;;
34988;SDS011;21192;40.182;44.516;2024-01-07T08:54:05;20.55;;;11.82;;
34988;SDS011;21192;40.182;44.516;2024-01-07T08:56:30;19.52;;;11.25;;
34988;SDS011;21192;40.182;44.516;2024-01-07T08:58:56;20.73;;;9.95;;
34988;SDS011;21192;40.182;44.516;2024-01-07T09:01:23;17.83;;;10.05;;
34988;SDS011;21192;40.182;44.516;2024-01-07T09:03:49;21.73;;;10.07;;
34988;SDS011;21192;40.182;44.516;2024-01-07T09:06:15;19.92;;;9.73;;
34988;SDS011;21192;40.182;44.516;2024-01-07T09:08:41;17.15;;;8.68;;
34988;SDS011;21192;40.182;44.516;2024-01-07T09:11:07;18.15;;;9.52;;
34988;SDS011;21192;40.182;44.516;2024-01-07T09:13:36;16.50;;;9.02;;
34988;SDS011;21192;40.182;44.516;2024-01-07T09:16:02;19.67;;;9.35;;
34988;SDS011;21192;40.182;44.516;2024-01-07T09:18:28;17.73;;;9.55;;
34988;SDS011;21192;40.182;44.516;2024-01-07T09:20:54;17.13;;;9.82;;
34988;SDS011;21192;40.182;44.516;2024-01-07T09:23:20;23.83;;;10.98;;
34988;SDS011;21192;40.182;44.516;2024-01-07T09:25:46;21.13;;;10.80;;
34988;SDS011;21192;40.182;44.516;2024-01-07T09:28:12;17.90;;;10.00;;
34988;SDS011;21192;40.182;44.516;2024-01-07T09:30:38;15.10;;;10.05;;
34988;SDS011;21192;40.182;44.516;2024-01-07T09:33:04;17.20;;;10.73;;
34988;SDS011;21192;40.182;44.516;2024-01-07T09:35:30;17.92;;;9.88;;
34988;SDS011;21192;40.182;44.516;2024-01-07T09:37:56;23.10;;;11.50;;
34988;SDS011;21192;40.182;44.516;2024-01-07T09:40:22;17.38;;;9.90;;
34988;SDS011;21192;40.182;44.516;2024-01-07T09:42:48;20.35;;;10.23;;
34988;SDS011;21192;40.182;44.516;2024-01-07T09:45:15;23.33;;;10.35;;
34988;SDS011;21192;40.182;44.516;2024-01-07T09:47:44;17.15;;;10.18;;
34988;SDS011;21192;40.182;44.516;2024-01-07T09:50:10;17.52;;;10.10;;
34988;SDS011;21192;40.182;44.516;2024-01-07T09:52:42;26.25;;;13.48;;
34988;SDS011;21192;40.182;44.516;2024-01-07T09:55:22;17.65;;;9.10;;
34988;SDS011;21192;40.182;44.516;2024-01-07T09:57:53;17.25;;;9.45;;
34988;SDS011;21192;40.182;44.516;2024-01-07T10:00:19;18.27;;;10.20;;
34988;SDS011;21192;40.182;44.516;2024-01-07T10:02:45;16.48;;;9.10;;
34988;SDS011;21192;40.182;44.516;2024-01-07T10:05:11;16.92;;;9.30;;
34988;SDS011;21192;40.182;44.516;2024-01-07T10:07:37;16.98;;;8.77;;
34988;SDS011;21192;40.182;44.516;2024-01-07T10:10:13;13.57;;;8.23;;
34988;SDS011;21192;40.182;44.516;2024-01-07T10:12:39;15.27;;;8.73;;
34988;SDS011;21192;40.182;44.516;2024-01-07T10:15:05;17.17;;;9.10;;
34988;SDS011;21192;40.182;44.516;2024-01-07T10:17:32;14.02;;;9.23;;
34988;SDS011;21192;40.182;44.516;2024-01-07T10:19:58;20.23;;;11.18;;
34988;SDS011;21192;40.182;44.516;2024-01-07T10:22:24;16.63;;;10.10;;
34988;SDS011;21192;40.182;44.516;2024-01-07T10:24:51;19.35;;;11.90;;
34988;SDS011;21192;40.182;44.516;2024-01-07T10:27:17;18.80;;;10.15;;
34988;SDS011;21192;40.182;44.516;2024-01-07T10:29:43;17.00;;;10.45;;
34988;SDS011;21192;40.182;44.516;2024-01-07T10:32:15;16.77;;;9.43;;
34988;SDS011;21192;40.182;44.516;2024-01-07T10:34:44;19.83;;;10.52;;
34988;SDS011;21192;40.182;44.516;2024-01-07T10:37:14;15.45;;;9.73;;
34988;SDS011;21192;40.182;44.516;2024-01-07T10:39:40;19.88;;;10.95;;
34988;SDS011;21192;40.182;44.516;2024-01-07T10:42:06;17.73;;;9.82;;
34988;SDS011;21192;40.182;44.516;2024-01-07T10:44:34;16.27;;;9.70;;
34988;SDS011;21192;40.182;44.516;2024-01-07T10:47:00;19.75;;;11.55;;
34988;SDS011;21192;40.182;44.516;2024-01-07T10:49:32;24.35;;;10.75;;
34988;SDS011;21192;40.182;44.516;2024-01-07T10:52:06;17.23;;;9.70;;
34988;SDS011;21192;40.182;44.516;2024-01-07T10:54:34;16.67;;;10.40;;
34988;SDS011;21192;40.182;44.516;2024-01-07T10:57:09;20.05;;;10.20;;
34988;SDS011;21192;40.182;44.516;2024-01-07T10:59:40;16.92;;;9.57;;
34988;SDS011;21192;40.182;44.516;2024-01-07T11:02:08;15.80;;;9.18;;
34988;SDS011;21192;40.182;44.516;2024-01-07T11:04:39;16.75;;;8.88;;
34988;SDS011;21192;40.182;44.516;2024-01-07T11:07:30;18.33;;;9.60;;
34988;SDS011;21192;40.182;44.516;2024-01-07T11:12:37;13.57;;;9.07;;
34988;SDS011;21192;40.182;44.516;2024-01-07T11:15:03;17.13;;;9.43;;
34988;SDS011;21192;40.182;44.516;2024-01-07T11:20:01;16.77;;;9.35;;
34988;SDS011;21192;40.182;44.516;2024-01-07T11:22:27;19.25;;;10.60;;
34988;SDS011;21192;40.182;44.516;2024-01-07T11:24:54;16.13;;;9.98;;
34988;SDS011;21192;40.182;44.516;2024-01-07T11:27:21;16.35;;;9.95;;
34988;SDS011;21192;40.182;44.516;2024-01-07T11:29:58;16.20;;;10.13;;
34988;SDS011;21192;40.182;44.516;2024-01-07T11:32:44;21.52;;;11.32;;
34988;SDS011;21192;40.182;44.516;2024-01-07T11:35:13;15.70;;;10.98;;
34988;SDS011;21192;40.182;44.516;2024-01-07T11:37:41;15.23;;;10.48;;
34988;SDS011;21192;40.182;44.516;2024-01-07T11:40:08;19.40;;;11.23;;
34988;SDS011;21192;40.182;44.516;2024-01-07T11:42:34;21.58;;;11.02;;
34988;SDS011;21192;40.182;44.516;2024-01-07T11:44:59;21.55;;;11.80;;
34988;SDS011;21192;40.182;44.516;2024-01-07T11:47:25;18.92;;;11.63;;
34988;SDS011;21192;40.182;44.516;2024-01-07T11:49:53;22.67;;;12.55;;
34988;SDS011;21192;40.182;44.516;2024-01-07T11:52:19;24.13;;;12.32;;
34988;SDS011;21192;40.182;44.516;2024-01-07T11:54:46;28.25;;;12.07;;
34988;SDS011;21192;40.182;44.516;2024-01-07T11:57:13;20.50;;;11.65;;
34988;SDS011;21192;40.182;44.516;2024-01-07T11:59:39;17.40;;;11.02;;
34988;SDS011;21192;40.182;44.516;2024-01-07T12:02:04;19.42;;;12.10;;
34988;SDS011;21192;40.182;44.516;2024-01-07T12:04:31;21.63;;;12.90;;
34988;SDS011;21192;40.182;44.516;2024-01-07T12:06:57;28.58;;;16.35;;
34988;SDS011;21192;40.182;44.516;2024-01-07T12:09:24;20.52;;;13.82;;
34988;SDS011;21192;40.182;44.516;2024-01-07T12:11:50;25.45;;;13.25;;
34988;SDS011;21192;40.182;44.516;2024-01-07T12:14:17;19.95;;;11.57;;
34988;SDS011;21192;40.182;44.516;2024-01-07T12:16:44;23.88;;;13.27;;
34988;SDS011;21192;40.182;44.516;2024-01-07T12:19:11;19.48;;;12.52;;
34988;SDS011;21192;40.182;44.516;2024-01-07T12:21:37;26.08;;;14.90;;
34988;SDS011;21192;40.182;44.516;2024-01-07T12:24:03;25.50;;;14.43;;
34988;SDS011;21192;40.182;44.516;2024-01-07T12:26:30;27.33;;;14.95;;
34988;SDS011;21192;40.182;44.516;2024-01-07T12:28:58;23.50;;;14.85;;
34988;SDS011;21192;40.182;44.516;2024-01-07T12:31:34;25.92;;;14.60;;
34988;SDS011;21192;40.182;44.516;2024-01-07T12:34:02;24.05;;;13.70;;
34988;SDS011;21192;40.182;44.516;2024-01-07T12:36:29;25.08;;;13.27;;
34988;SDS011;21192;40.182;44.516;2024-01-07T12:38:56;24.77;;;13.27;;
34988;SDS011;21192;40.182;44.516;2024-01-07T12:41:23;22.30;;;13.90;;
34988;SDS011;21192;40.182;44.516;2024-01-07T12:43:49;22.58;;;14.15;;
34988;SDS011;21192;40.182;44.516;2024-01-07T12:46:15;23.25;;;13.23;;
34988;SDS011;21192;40.182;44.516;2024-01-07T12:48:41;19.90;;;12.38;;
34988;SDS011;21192;40.182;44.516;2024-01-07T12:51:07;22.85;;;11.95;;
34988;SDS011;21192;40.182;44.516;2024-01-07T12:53:33;24.30;;;13.50;;
34988;SDS011;21192;40.182;44.516;2024-01-07T12:55:59;27.48;;;13.85;;
34988;SDS011;21192;40.182;44.516;2024-01-07T12:58:26;19.15;;;12.20;;
34988;SDS011;21192;40.182;44.516;2024-01-07T13:00:52;24.25;;;12.82;;
34988;SDS011;21192;40.182;44.516;2024-01-07T13:03:18;24.40;;;13.13;;
34988;SDS011;21192;40.182;44.516;2024-01-07T13:05:45;25.15;;;13.60;;
34988;SDS011;21192;40.182;44.516;2024-01-07T13:08:15;21.63;;;12.57;;
34988;SDS011;21192;40.182;44.516;2024-01-07T13:10:43;25.75;;;14.25;;
34988;SDS011;21192;40.182;44.516;2024-01-07T13:13:11;24.83;;;13.98;;
34988;SDS011;21192;40.182;44.516;2024-01-07T13:15:37;27.00;;;13.70;;
34988;SDS011;21192;40.182;44.516;2024-01-07T13:18:06;27.40;;;15.70;;
34988;SDS011;21192;40.182;44.516;2024-01-07T13:20:32;29.88;;;15.15;;
34988;SDS011;21192;40.182;44.516;2024-01-07T13:22:59;34.22;;;15.27;;
34988;SDS011;21192;40.182;44.516;2024-01-07T13:25:25;24.35;;;12.23;;
34988;SDS011;21192;40.182;44.516;2024-01-07T13:27:51;26.20;;;13.98;;
34988;SDS011;21192;40.182;44.516;2024-01-07T13:30:17;26.50;;;15.00;;
34988;SDS011;21192;40.182;44.516;2024-01-07T13:32:43;26.25;;;15.57;;
34988;SDS011;21192;40.182;44.516;2024-01-07T13:35:09;26.25;;;15.98;;
34988;SDS011;21192;40.182;44.516;2024-01-07T13:37:38;25.45;;;15.25;;
34988;SDS011;21192;40.182;44.516;2024-01-07T13:40:07;26.67;;;14.35;;
34988;SDS011;21192;40.182;44.516;2024-01-07T13:42:36;27.42;;;15.32;;
34988;SDS011;21192;40.182;44.516;2024-01-07T13:45:02;25.77;;;15.77;;
34988;SDS011;21192;40.182;44.516;2024-01-07T13:47:29;28.73;;;15.23;;
34988;SDS011;21192;40.182;44.516;2024-01-07T13:49:55;31.42;;;16.98;;
34988;SDS011;21192;40.182;44.516;2024-01-07T13:52:21;32.53;;;15.90;;
34988;SDS011;21192;40.182;44.516;2024-01-07T13:54:47;26.73;;;15.02;;
34988;SDS011;21192;40.182;44.516;2024-01-07T13:57:12;25.77;;;14.90;;
34988;SDS011;21192;40.182;44.516;2024-01-07T13:59:38;30.58;;;16.63;;
34988;SDS011;21192;40.182;44.516;2024-01-07T14:02:06;29.00;;;15.07;;
34988;SDS011;21192;40.182;44.516;2024-01-07T14:04:33;26.23;;;14.85;;
34988;SDS011;21192;40.182;44.516;2024-01-07T14:06:59;25.23;;;14.23;;
34988;SDS011;21192;40.182;44.516;2024-01-07T14:09:25;24.80;;;13.77;;
34988;SDS011;21192;40.182;44.516;2024-01-07T14:11:51;33.47;;;14.00;;
34988;SDS011;21192;40.182;44.516;2024-01-07T14:14:17;22.25;;;12.80;;
34988;SDS011;21192;40.182;44.516;2024-01-07T14:16:46;20.38;;;13.00;;
34988;SDS011;21192;40.182;44.516;2024-01-07T14:19:12;27.52;;;14.95;;
34988;SDS011;21192;40.182;44.516;2024-01-07T14:21:40;31.50;;;15.50;;
34988;SDS011;21192;40.182;44.516;2024-01-07T14:24:05;30.20;;;15.45;;